Time;durP1;ratioP1;P1;durP2;ratioP2;P2;SDS_P1;SDS_P2;PMS_P1;PMS_P2;Temp;Humidity;BMP_temperature;BMP_pressure;BME280_temperature;BME280_humidity;BME280_pressure;Samples;Min_cycle;Max_cycle;Signal;HPM_P1;HPM_P2
2022/04/08 00:00:26;;;;;;;;;;;;;;;-145.06;0.00;60892.56;4905974;28;19916;-86
2022/04/08 00:03:06;;;;;;;;;;;;;;;-145.06;0.00;60892.56;4904400;28;19916;-86
2022/04/08 00:05:45;;;;;;;;;;;;;;;-145.06;0.00;60892.56;4891517;28;19912;-86
2022/04/08 00:08:24;;;;;;;;;;;;;;;-145.06;0.00;60892.56;4881281;28;19968;-87
2022/04/08 00:11:03;;;;;;;;;;;;;;;-145.06;0.00;60892.56;4895939;28;19943;-85
2022/04/08 00:13:42;;;;;;;;;;;;;;;-145.06;0.00;60892.56;4909155;28;19920;-86
2022/04/08 00:16:22;;;;;;;;;;;;;;;-145.06;0.00;60892.56;4919100;28;19920;-86
2022/04/08 00:19:01;;;;;;;;;;;;;;;-145.06;0.00;60892.56;4912551;28;20099;-85
2022/04/08 00:21:40;;;;;;;;;;;;;;;-145.06;0.00;60892.56;4903173;28;19916;-86
2022/04/08 00:24:19;;;;;;;;;;;;;;;-145.06;0.00;60892.56;4894779;28;19921;-86
2022/04/08 00:26:58;;;;;;;;;;;;;;;-145.06;0.00;60892.56;4909246;28;19920;-86
2022/04/08 00:29:37;;;;;;;;;;;;;;;-145.06;0.00;60892.56;4912783;28;19999;-86
2022/04/08 00:32:16;;;;;;;;;;;;;;;-145.06;0.00;60892.56;4898975;28;20003;-86
2022/04/08 00:34:55;;;;;;;;;;;;;;;-145.06;0.00;60892.56;4885060;28;19920;-86
2022/04/08 00:37:34;;;;;;;;;;;;;;;-145.06;0.00;60892.56;4920215;28;19916;-86
2022/04/08 00:40:12;;;;;;;;;;;;;;;-145.06;0.00;60892.56;4904357;28;20254;-86
2022/04/08 00:42:51;;;;;;;;;;;;;;;-145.06;0.00;60892.56;4907834;28;19916;-86
2022/04/08 00:45:30;;;;;;;;;;;;;;;-145.06;0.00;60892.56;4914783;28;20413;-85
2022/04/08 00:48:09;;;;;;;;;;;;;;;-145.06;0.00;60892.56;4899768;28;19916;-86
2022/04/08 00:50:48;;;;;;;;;;;;;;;-145.06;0.00;60892.56;4891054;28;20824;-86
2022/04/08 00:53:28;;;;;;;;;;;;;;;-145.06;0.00;60892.56;4898683;28;19912;-86
2022/04/08 00:56:07;;;;;;;;;;;;;;;-145.06;0.00;60892.56;4894326;28;19912;-85
2022/04/08 00:58:46;;;;;;;;;;;;;;;-145.06;0.00;60892.56;4923615;28;20496;-86
2022/04/08 01:01:25;;;;;;;;;;;;;;;-145.06;0.00;60892.56;4919804;28;19913;-86
2022/04/08 01:04:04;;;;;;;;;;;;;;;-145.06;0.00;60892.56;4894029;28;19921;-87
2022/04/08 01:06:43;;;;;;;;;;;;;;;-145.06;0.00;60892.56;4897173;28;19912;-86
2022/04/08 01:09:22;;;;;;;;;;;;;;;-145.06;0.00;60892.56;4884242;28;19924;-85
2022/04/08 01:12:02;;;;;;;;;;;;;;;-145.06;0.00;60892.56;4912758;28;19920;-86
2022/04/08 01:14:41;;;;;;;;;;;;;;;-145.06;0.00;60892.56;4894533;28;19912;-87
2022/04/08 01:17:20;;;;;;;;;;;;;;;-145.06;0.00;60892.56;4898960;28;19920;-85
2022/04/08 01:19:59;;;;;;;;;;;;;;;-145.06;0.00;60892.56;4885152;28;20374;-86
2022/04/08 01:22:38;;;;;;;;;;;;;;;-145.06;0.00;60892.56;4900899;28;19951;-86
2022/04/08 01:25:17;;;;;;;;;;;;;;;-145.06;0.00;60892.56;4893218;28;20496;-86
2022/04/08 01:27:56;;;;;;;;;;;;;;;-145.06;0.00;60892.56;4896441;28;19919;-86
2022/04/08 01:30:35;;;;;;;;;;;;;;;-145.06;0.00;60892.56;4902341;28;19920;-87
2022/04/08 01:33:14;;;;;;;;;;;;;;;-145.06;0.00;60892.56;4896254;28;19920;-86
2022/04/08 01:35:53;;;;;;;;;;;;;;;-145.06;0.00;60892.56;4916522;28;19916;-88
2022/04/08 01:38:32;;;;;;;;;;;;;;;-145.06;0.00;60892.56;4899002;28;20258;-86
2022/04/08 01:41:11;;;;;;;;;;;;;;;-145.06;0.00;60892.56;4896200;28;19947;-87
2022/04/08 01:43:50;;;;;;;;;;;;;;;-145.06;0.00;60892.56;4885643;28;19920;-86
2022/04/08 01:46:29;;;;;;;;;;;;;;;-145.06;0.00;60892.56;4921309;28;19919;-87
2022/04/08 01:49:08;;;;;;;;;;;;;;;-145.06;0.00;60892.56;4887375;28;20422;-86
2022/04/08 01:51:47;;;;;;;;;;;;;;;-145.06;0.00;60892.56;4924037;28;20002;-86
2022/04/08 01:54:26;;;;;;;;;;;;;;;-145.06;0.00;60892.56;4931147;28;19952;-86
2022/04/08 01:57:06;;;;;;;;;;;;;;;-145.06;0.00;60892.56;4887792;28;19916;-86
2022/04/08 01:59:44;;;;;;;;;;;;;;;-145.06;0.00;60892.56;4900024;28;19920;-86
2022/04/08 02:02:23;;;;;;;;;;;;;;;-145.06;0.00;60892.56;4893513;28;19917;-87
2022/04/08 02:05:02;;;;;;;;;;;;;;;-145.06;0.00;60892.56;4897596;28;19920;-86
2022/04/08 02:07:41;;;;;;;;;;;;;;;-145.06;0.00;60892.56;4897491;28;19917;-87
2022/04/08 02:10:20;;;;;;;;;;;;;;;-145.06;0.00;60892.56;4903945;28;19921;-86
2022/04/08 02:12:59;;;;;;;;;;;;;;;-145.06;0.00;60892.56;4892769;28;19916;-87
2022/04/08 02:15:39;;;;;;;;;;;;;;;-145.06;0.00;60892.56;4897431;28;19916;-87
2022/04/08 02:18:17;;;;;;;;;;;;;;;-145.06;0.00;60892.56;4898444;28;19963;-86
2022/04/08 02:20:57;;;;;;;;;;;;;;;-145.06;0.00;60892.56;4920314;28;19912;-87
2022/04/08 02:23:36;;;;;;;;;;;;;;;-145.06;0.00;60892.56;4904683;28;20390;-86
2022/04/08 02:26:16;;;;;;;;;;;;;;;-145.06;0.00;60892.56;4917724;28;19959;-86
2022/04/08 02:28:55;;;;;;;;;;;;;;;-145.06;0.00;60892.56;4900831;28;19977;-87
2022/04/08 02:31:34;;;;;;;;;;;;;;;-145.06;0.00;60892.56;4906851;28;19920;-86
2022/04/08 02:34:13;;;;;;;;;;;;;;;-145.06;0.00;60892.56;4891928;28;19916;-86
2022/04/08 02:36:52;;;;;;;;;;;;;;;-145.06;0.00;60892.56;4888554;28;19916;-87
2022/04/08 02:39:31;;;;;;;;;;;;;;;-145.06;0.00;60892.56;4900948;28;20250;-86
2022/04/08 02:42:10;;;;;;;;;;;;;;;-145.06;0.00;60892.56;4914234;28;20349;-87
2022/04/08 02:44:49;;;;;;;;;;;;;;;-145.06;0.00;60892.56;4882938;28;20011;-86
2022/04/08 02:47:28;;;;;;;;;;;;;;;-145.06;0.00;60892.56;4891908;28;20369;-86
2022/04/08 02:50:07;;;;;;;;;;;;;;;-145.06;0.00;60892.56;4883804;28;19920;-86
2022/04/08 02:52:46;;;;;;;;;;;;;;;-145.06;0.00;60892.56;4902116;28;19916;-86
2022/04/08 02:55:25;;;;;;;;;;;;;;;-145.06;0.00;60892.56;4910538;28;19987;-87
2022/04/08 02:58:04;;;;;;;;;;;;;;;-145.06;0.00;60892.56;4896075;28;20552;-87
2022/04/08 03:00:43;;;;;;;;;;;;;;;-145.06;0.00;60892.56;4910071;28;20014;-87
2022/04/08 03:03:24;;;;;;;;;;;;;;;-145.06;0.00;60892.56;4897074;28;19917;-87
2022/04/08 03:06:03;;;;;;;;;;;;;;;-145.06;0.00;60892.56;4923658;28;19912;-86
2022/04/08 03:08:42;;;;;;;;;;;;;;;-145.06;0.00;60892.56;4900783;28;20402;-87
2022/04/08 03:11:21;;;;;;;;;;;;;;;-145.06;0.00;60892.56;4897629;28;19920;-86
2022/04/08 03:14:02;;;;;;;;;;;;;;;-145.06;0.00;60892.56;4912029;28;20373;-87
2022/04/08 03:16:40;;;;;;;;;;;;;;;-145.06;0.00;60892.56;4897083;28;19924;-86
2022/04/08 03:19:19;;;;;;;;;;;;;;;-145.06;0.00;60892.56;4887940;28;19917;-86
2022/04/08 03:21:59;;;;;;;;;;;;;;;-145.06;0.00;60892.56;4906710;28;19916;-87
2022/04/08 03:24:38;;;;;;;;;;;;;;;187.52;0.00;60892.56;4897925;28;19920;-86
2022/04/08 03:27:17;;;;;;;;;;;;;;;-145.06;0.00;60892.56;4922611;28;19920;-87
2022/04/08 03:29:56;;;;;;;;;;;;;;;6.79;0.00;60892.56;4909931;28;19924;-87
2022/04/08 03:32:35;;;;;;;;;;;;;;;-145.06;0.00;60892.56;4896796;28;19924;-87
2022/04/08 03:35:15;;;;;;;;;;;;;;;6.79;0.00;60892.56;4888879;28;19916;-87
2022/04/08 03:37:54;;;;;;;;;;;;;;;-145.06;0.00;60892.56;4885191;28;20275;-86
2022/04/08 03:40:36;;;;;;;;;;;;;;;6.79;0.00;60892.56;4891351;28;19916;-87
2022/04/08 03:43:15;;;;;;;;;;;;;;;8.08;0.00;60892.56;4912333;28;19916;-86
2022/04/08 03:45:54;;;;;;;;;;;;;;;8.08;0.00;60892.56;4887503;28;19972;-87
2022/04/08 03:48:33;;;;;;;;;;;;;;;8.08;0.00;60892.56;4937826;28;19924;-87
2022/04/08 03:51:12;;;;;;;;;;;;;;;6.79;0.00;60892.56;4904449;28;19924;-86
2022/04/08 03:53:51;;;;;;;;;;;;;;;6.61;0.00;60892.56;4901854;28;20358;-87
2022/04/08 03:56:30;;;;;;;;;;;;;;;6.79;0.00;60892.56;4898912;28;20329;-86
2022/04/08 03:59:09;;;;;;;;;;;;;;;6.79;0.00;60892.56;4901623;28;19920;-86
2022/04/08 04:01:49;;;;;;;;;;;;;;;8.08;0.00;60892.56;4910775;28;20275;-87
2022/04/08 04:04:28;;;;;;;;;;;;;;;8.08;0.00;60892.56;4894857;28;19916;-87
2022/04/08 04:07:07;;;;;;;;;;;;;;;6.79;0.00;60892.56;4881483;28;19916;-88
2022/04/08 04:09:46;;;;;;;;;;;;;;;6.79;0.00;60892.56;4890719;28;19916;-88
2022/04/08 04:12:28;;;;;;;;;;;;;;;-145.06;0.00;60892.56;4900498;28;20026;-88
2022/04/08 04:15:08;;;;;;;;;;;;;;;6.79;0.00;60892.56;4894776;28;19917;-88
2022/04/08 04:17:47;;;;;;;;;;;;;;;8.08;0.00;60892.56;4915947;28;19919;-87
2022/04/08 04:20:26;;;;;;;;;;;;;;;187.52;0.00;60892.56;4894280;28;19917;-86
2022/04/08 04:23:05;;;;;;;;;;;;;;;8.08;0.00;60892.56;4896055;28;19955;-88
2022/04/08 04:25:44;;;;;;;;;;;;;;;6.52;0.00;60892.56;4894998;28;19920;-87
2022/04/08 04:28:23;;;;;;;;;;;;;;;10.68;0.00;60892.56;4901895;28;19912;-86
2022/04/08 04:31:04;;;;;;;;;;;;;;;8.08;0.00;60892.56;4905301;28;19916;-87
2022/04/08 04:33:43;;;;;;;;;;;;;;;8.08;0.00;60892.56;4912248;28;20414;-87
2022/04/08 04:36:22;;;;;;;;;;;;;;;-145.06;0.00;60892.56;4893473;28;19920;-87
2022/04/08 04:39:00;;;;;;;;;;;;;;;-145.06;0.00;60892.56;4926368;28;20479;-88
2022/04/08 04:41:39;;;;;;;;;;;;;;;-145.06;0.00;60892.56;4888290;28;20290;-86
2022/04/08 04:44:19;;;;;;;;;;;;;;;-145.06;0.00;60892.56;4897617;28;20475;-87
2022/04/08 04:46:57;;;;;;;;;;;;;;;-145.06;0.00;60892.56;4890220;28;19916;-87
2022/04/08 04:49:36;;;;;;;;;;;;;;;-145.06;0.00;60892.56;4893070;28;19920;-86
2022/04/08 04:52:15;;;;;;;;;;;;;;;-145.06;0.00;60892.56;4902081;28;20011;-87
2022/04/08 04:54:56;;;;;;;;;;;;;;;-145.06;0.00;60892.56;4894342;28;20002;-87
2022/04/08 04:57:35;;;;;;;;;;;;;;;-145.06;0.00;60892.56;4897571;28;19916;-87
2022/04/08 05:00:16;;;;;;;;;;;;;;;-145.06;0.00;60892.56;4900223;28;19916;-87
2022/04/08 05:02:55;;;;;;;;;;;;;;;-145.06;0.00;60892.56;4918003;28;19916;-87
2022/04/08 05:05:34;;;;;;;;;;;;;;;-145.06;0.00;60892.56;4901007;28;19917;-88
2022/04/08 05:08:14;;;;;;;;;;;;;;;-145.06;0.00;60892.56;4896327;28;19959;-87
2022/04/08 05:10:53;;;;;;;;;;;;;;;-145.06;0.00;60892.56;4911064;28;20306;-88
2022/04/08 05:13:32;;;;;;;;;;;;;;;-145.06;0.00;60892.56;4890457;28;19920;-87
2022/04/08 05:16:11;;;;;;;;;;;;;;;21.08;0.00;60892.56;4915885;28;19920;-88
2022/04/08 05:18:50;;;;;;;;;;;;;;;-145.06;0.00;60892.56;4892166;28;19917;-87
2022/04/08 05:21:29;;;;;;;;;;;;;;;-145.06;0.00;60892.56;4909883;28;20389;-88
2022/04/08 05:24:08;;;;;;;;;;;;;;;8.08;0.00;60892.56;4886308;28;19917;-87
2022/04/08 05:26:47;;;;;;;;;;;;;;;8.08;0.00;60892.56;4891472;28;19921;-87
2022/04/08 05:29:26;;;;;;;;;;;;;;;-145.06;0.00;60892.56;4898049;28;19912;-87
2022/04/08 05:32:05;;;;;;;;;;;;;;;-145.06;0.00;60892.56;4921211;28;19923;-88
2022/04/08 05:34:45;;;;;;;;;;;;;;;6.59;0.00;60892.56;4887163;28;19959;-87
2022/04/08 05:37:23;;;;;;;;;;;;;;;6.79;0.00;60892.56;4888062;28;19916;-88
2022/04/08 05:40:03;;;;;;;;;;;;;;;8.08;0.00;60892.56;4889774;28;20363;-87
2022/04/08 05:42:44;;;;;;;;;;;;;;;8.08;0.00;60892.56;4890104;28;19916;-87
2022/04/08 05:45:23;;;;;;;;;;;;;;;6.62;0.00;60892.56;4907548;28;19920;-86
2022/04/08 05:48:05;;;;;;;;;;;;;;;6.63;0.00;60892.56;4895272;28;20270;-88
2022/04/08 05:50:44;;;;;;;;;;;;;;;6.79;0.00;60892.56;4897902;28;19920;-87
2022/04/08 05:53:26;;;;;;;;;;;;;;;6.79;0.00;60892.56;4895743;28;20386;-88
2022/04/08 05:56:05;;;;;;;;;;;;;;;8.08;0.00;60892.56;4892788;28;19919;-87
2022/04/08 05:58:44;;;;;;;;;;;;;;;6.79;0.00;60892.56;4898879;28;19919;-88
2022/04/08 06:01:23;;;;;;;;;;;;;;;8.08;0.00;60892.56;4887723;28;19916;-88
2022/04/08 06:04:02;;;;;;;;;;;;;;;-145.06;0.00;60892.56;4890927;28;19912;-88
2022/04/08 06:06:43;;;;;;;;;;;;;;;-145.06;0.00;60892.56;4912422;28;20361;-87
2022/04/08 06:09:21;;;;;;;;;;;;;;;-145.06;0.00;60892.56;4896992;28;19916;-87
2022/04/08 06:12:01;;;;;;;;;;;;;;;-145.06;0.00;60892.56;4898612;28;20389;-87
2022/04/08 06:14:40;;;;;;;;;;;;;;;-145.06;0.00;60892.56;4913218;28;19987;-87
2022/04/08 06:17:19;;;;;;;;;;;;;;;-145.06;0.00;60892.56;4895694;28;20011;-87
2022/04/08 06:19:58;;;;;;;;;;;;;;;-145.06;0.00;60892.56;4885874;28;20416;-88
2022/04/08 06:22:39;;;;;;;;;;;;;;;-145.06;0.00;60892.56;4903259;28;20002;-87
2022/04/08 06:25:19;;;;;;;;;;;;;;;-145.06;0.00;60892.56;4909724;28;19991;-87
2022/04/08 06:28:03;;;;;;;;;;;;;;;-145.06;0.00;60892.56;4895646;28;20274;-87
2022/04/08 06:30:42;;;;;;;;;;;;;;;-145.06;0.00;60892.56;4898878;28;19912;-88
2022/04/08 06:33:22;;;;;;;;;;;;;;;-145.06;0.00;60892.56;4902037;28;20516;-88
2022/04/08 06:36:01;;;;;;;;;;;;;;;-145.06;0.00;60892.56;4902577;28;19912;-87
2022/04/08 06:38:41;;;;;;;;;;;;;;;-145.06;0.00;60892.56;4908655;28;19952;-88
2022/04/08 06:41:20;;;;;;;;;;;;;;;-145.06;0.00;60892.56;4902636;28;19915;-88
2022/04/08 06:43:59;;;;;;;;;;;;;;;-145.06;0.00;60892.56;4908024;28;20327;-87
2022/04/08 06:46:38;;;;;;;;;;;;;;;-145.06;0.00;60892.56;4902674;28;20385;-88
2022/04/08 06:49:19;;;;;;;;;;;;;;;-145.06;0.00;60892.56;4900071;28;20404;-88
2022/04/08 06:51:58;;;;;;;;;;;;;;;-145.06;0.00;60892.56;4911644;28;19916;-87
2022/04/08 06:54:37;;;;;;;;;;;;;;;-145.06;0.00;60892.56;4901212;28;19912;-87
2022/04/08 06:57:16;;;;;;;;;;;;;;;-145.06;0.00;60892.56;4915378;28;19915;-87
2022/04/08 06:59:55;;;;;;;;;;;;;;;-145.06;0.00;60892.56;4913973;28;19920;-88
2022/04/08 07:02:34;;;;;;;;;;;;;;;-145.06;0.00;60892.56;4921001;28;20258;-89
2022/04/08 07:05:13;;;;;;;;;;;;;;;-145.06;0.00;60892.56;4917752;28;20007;-89
2022/04/08 07:07:52;;;;;;;;;;;;;;;-145.06;0.00;60892.56;4903200;28;19912;-88
2022/04/08 07:10:31;;;;;;;;;;;;;;;187.52;0.00;60892.56;4887036;28;19912;-88
2022/04/08 07:13:10;;;;;;;;;;;;;;;7.79;0.00;60892.56;4917737;28;19919;-89
2022/04/08 07:15:49;;;;;;;;;;;;;;;187.52;0.00;60892.56;4915024;28;19912;-85
2022/04/08 07:18:28;;;;;;;;;;;;;;;187.52;0.00;60892.56;4897808;28;20397;-88
2022/04/08 07:21:07;;;;;;;;;;;;;;;187.52;0.00;60892.56;4921254;28;19916;-88
2022/04/08 07:23:46;;;;;;;;;;;;;;;187.52;0.00;60892.56;4923763;28;19959;-88
2022/04/08 07:26:25;;;;;;;;;;;;;;;-145.06;0.00;60892.56;4912126;28;19916;-90
2022/04/08 07:29:05;;;;;;;;;;;;;;;8.08;0.00;60892.56;4921657;28;19924;-90
2022/04/08 07:31:43;;;;;;;;;;;;;;;8.00;0.00;60892.56;4901686;28;19920;-89
2022/04/08 07:34:23;;;;;;;;;;;;;;;8.00;0.00;60892.56;4918867;28;19967;-89
2022/04/08 07:37:02;;;;;;;;;;;;;;;8.00;0.00;60892.56;4901173;28;19916;-89
2022/04/08 07:39:42;;;;;;;;;;;;;;;8.02;0.00;60892.56;4886160;28;19912;-88
2022/04/08 07:42:22;;;;;;;;;;;;;;;8.04;0.00;60892.56;4901200;28;19912;-88
2022/04/08 07:45:01;;;;;;;;;;;;;;;8.06;0.00;60892.56;4919409;28;20254;-89
2022/04/08 07:47:40;;;;;;;;;;;;;;;8.05;0.00;60892.56;4904393;28;20357;-89
2022/04/08 07:50:19;;;;;;;;;;;;;;;8.06;0.00;60892.56;4915995;28;20369;-89
2022/04/08 07:52:58;;;;;;;;;;;;;;;8.07;0.00;60892.56;4907643;28;19916;-88
2022/04/08 07:55:37;;;;;;;;;;;;;;;8.08;0.00;60892.56;4921764;28;19995;-89
2022/04/08 07:58:16;;;;;;;;;;;;;;;-145.06;0.00;60892.56;4904230;28;20333;-88
2022/04/08 08:00:55;;;;;;;;;;;;;;;-145.06;0.00;60892.56;4901252;28;19912;-88
2022/04/08 08:03:34;;;;;;;;;;;;;;;-145.06;0.00;60892.56;4901263;28;20357;-89
2022/04/08 08:06:15;;;;;;;;;;;;;;;-145.06;0.00;60892.56;4901540;28;19920;-89
2022/04/08 08:08:55;;;;;;;;;;;;;;;-145.06;0.00;60892.56;4888477;28;20326;-89
2022/04/08 08:11:34;;;;;;;;;;;;;;;-145.06;0.00;60892.56;4920598;28;20368;-89
2022/04/08 08:14:13;;;;;;;;;;;;;;;-145.06;0.00;60892.56;4916472;28;19948;-89
2022/04/08 08:16:52;;;;;;;;;;;;;;;-145.06;0.00;60892.56;4886520;28;20363;-89
2022/04/08 08:19:31;;;;;;;;;;;;;;;-145.06;0.00;60892.56;4930529;28;19912;-88
2022/04/08 08:22:10;;;;;;;;;;;;;;;-145.06;0.00;60892.56;4900658;28;19916;-89
2022/04/08 08:24:49;;;;;;;;;;;;;;;-145.06;0.00;60892.56;4919192;28;20456;-89
2022/04/08 08:27:28;;;;;;;;;;;;;;;-145.06;0.00;60892.56;4902330;28;20006;-89
2022/04/08 08:30:10;;;;;;;;;;;;;;;-145.06;0.00;60892.56;4915385;28;20370;-88
2022/04/08 08:32:49;;;;;;;;;;;;;;;-145.06;0.00;60892.56;4912406;28;19923;-87
2022/04/08 08:35:28;;;;;;;;;;;;;;;-145.06;0.00;60892.56;4919340;28;19920;-88
2022/04/08 08:38:08;;;;;;;;;;;;;;;-145.06;0.00;60892.56;4904832;28;19998;-88
2022/04/08 08:40:48;;;;;;;;;;;;;;;-145.06;0.00;60892.56;4900280;28;20334;-88
2022/04/08 08:43:27;;;;;;;;;;;;;;;-145.06;0.00;60892.56;4922292;28;19995;-89
2022/04/08 08:46:08;;;;;;;;;;;;;;;-145.06;0.00;60892.56;4911677;28;20439;-88
2022/04/08 08:48:49;;;;;;;;;;;;;;;-145.06;0.00;60892.56;4921110;28;19915;-88
2022/04/08 08:51:29;;;;;;;;;;;;;;;-145.06;0.00;60892.56;4899580;28;19912;-88
2022/04/08 08:54:08;;;;;;;;;;;;;;;-145.06;0.00;60892.56;4920059;28;20373;-89
2022/04/08 08:56:46;;;;;;;;;;;;;;;-145.06;0.00;60892.56;4889488;28;19916;-88
2022/04/08 08:59:26;;;;;;;;;;;;;;;-145.06;0.00;60892.56;4921255;28;20516;-88
2022/04/08 09:02:05;;;;;;;;;;;;;;;-145.06;0.00;60892.56;4900088;28;19916;-88
2022/04/08 09:04:44;;;;;;;;;;;;;;;-145.06;0.00;60892.56;4896034;28;19916;-88
2022/04/08 09:07:29;;;;;;;;;;;;;;;-145.06;0.00;60892.56;4881098;28;19912;-89
2022/04/08 09:10:08;;;;;;;;;;;;;;;-145.06;0.00;60892.56;4925720;28;20255;-88
2022/04/08 09:12:52;;;;;;;;;;;;;;;-145.06;0.00;60892.56;4899489;28;19920;-88
2022/04/08 09:15:33;;;;;;;;;;;;;;;-145.06;0.00;60892.56;4900150;28;19912;-87
2022/04/08 09:18:14;;;;;;;;;;;;;;;-145.06;0.00;60892.56;4899085;28;20306;-88
2022/04/08 09:20:53;;;;;;;;;;;;;;;-145.06;0.00;60892.56;4899803;28;20270;-89
2022/04/08 09:23:33;;;;;;;;;;;;;;;-145.06;0.00;60892.56;4907703;28;19912;-89
2022/04/08 09:26:14;;;;;;;;;;;;;;;-145.06;0.00;60892.56;4904091;28;19912;-89
2022/04/08 09:28:55;;;;;;;;;;;;;;;9.28;0.00;60892.56;4904924;28;19951;-89
2022/04/08 09:31:36;;;;;;;;;;;;;;;9.30;0.00;60892.56;4908104;28;19920;-89
2022/04/08 09:34:16;;;;;;;;;;;;;;;9.32;0.00;60892.56;4913801;28;19916;-88
2022/04/08 09:36:57;;;;;;;;;;;;;;;9.33;0.00;60892.56;4894966;28;19912;-88
2022/04/08 09:39:36;;;;;;;;;;;;;;;9.34;0.00;60892.56;4889260;28;19916;-89
2022/04/08 09:42:15;;;;;;;;;;;;;;;9.35;0.00;60892.56;4888498;28;19912;-89
2022/04/08 09:44:54;;;;;;;;;;;;;;;9.38;0.00;60892.56;4905241;28;19916;-88
2022/04/08 09:47:33;;;;;;;;;;;;;;;-145.06;0.00;60892.56;4906790;28;19916;-88
2022/04/08 09:50:12;;;;;;;;;;;;;;;-145.06;0.00;60892.56;4909839;28;19916;-88
2022/04/08 09:52:51;;;;;;;;;;;;;;;-145.06;0.00;60892.56;4899333;28;19916;-88
2022/04/08 09:55:30;;;;;;;;;;;;;;;-145.06;0.00;60892.56;4914553;28;19920;-89
2022/04/08 09:58:10;;;;;;;;;;;;;;;-145.06;0.00;60892.56;4899057;28;19912;-88
2022/04/08 10:00:49;;;;;;;;;;;;;;;-145.06;0.00;60892.56;4906793;28;19912;-88
2022/04/08 10:03:28;;;;;;;;;;;;;;;-145.06;0.00;60892.56;4905531;28;19913;-88
2022/04/08 10:06:08;;;;;;;;;;;;;;;-145.06;0.00;60892.56;4903048;28;20010;-88
2022/04/08 10:08:48;;;;;;;;;;;;;;;-145.06;0.00;60892.56;4902218;28;19996;-87
2022/04/08 10:11:47;;;;;;;;;;;;;;;-145.06;0.00;60892.56;4912283;28;19912;-88
2022/04/08 10:14:26;;;;;;;;;;;;;;;-145.06;0.00;60892.56;4904011;28;19920;-88
2022/04/08 10:17:05;;;;;;;;;;;;;;;-145.06;0.00;60892.56;4888404;28;19912;-89
2022/04/08 10:19:44;;;;;;;;;;;;;;;-145.06;0.00;60892.56;4919051;28;19916;-88
2022/04/08 10:22:23;;;;;;;;;;;;;;;-145.06;0.00;60892.56;4913644;28;19916;-88
2022/04/08 10:25:12;;;;;;;;;;;;;;;-145.06;0.00;60892.56;4926684;28;19916;-88
2022/04/08 10:27:58;;;;;;;;;;;;;;;-145.06;0.00;60892.56;4922721;28;20262;-88
2022/04/08 10:30:44;;;;;;;;;;;;;;;-145.06;0.00;60892.56;4896649;28;19955;-88
2022/04/08 10:33:25;;;;;;;;;;;;;;;-145.06;0.00;60892.56;4911878;28;20003;-88
2022/04/08 10:36:04;;;;;;;;;;;;;;;-145.06;0.00;60892.56;4935863;28;20247;-88
2022/04/08 10:38:43;;;;;;;;;;;;;;;-145.06;0.00;60892.56;4931243;28;19912;-88
2022/04/08 10:41:22;;;;;;;;;;;;;;;-145.06;0.00;60892.56;4930453;28;19920;-88
2022/04/08 10:44:01;;;;;;;;;;;;;;;-145.06;0.00;60892.56;4920342;28;19911;-88
2022/04/08 10:46:50;;;;;;;;;;;;;;;-145.06;0.00;60892.56;4899120;28;20567;-89
2022/04/08 10:49:30;;;;;;;;;;;;;;;-145.06;0.00;60892.56;4925677;28;19916;-88
2022/04/08 10:52:14;;;;;;;;;;;;;;;-145.06;0.00;60892.56;4929492;28;19912;-87
2022/04/08 10:55:10;;;;;;;;;;;;;;;-145.06;0.00;60892.56;4915463;28;19916;-88
2022/04/08 10:57:53;;;;;;;;;;;;;;;-145.06;0.00;60892.56;4918161;28;19912;-89
2022/04/08 11:00:38;;;;;;;;;;;;;;;-145.06;0.00;60892.56;4911932;28;19920;-88
2022/04/08 11:03:17;;;;;;;;;;;;;;;-145.06;0.00;60892.56;4910982;28;19912;-88
2022/04/08 11:05:56;;;;;;;;;;;;;;;-145.06;0.00;60892.56;4902831;28;20420;-88
2022/04/08 11:08:35;;;;;;;;;;;;;;;-145.06;0.00;60892.56;4904136;28;20306;-88
2022/04/08 11:11:15;;;;;;;;;;;;;;;-145.06;0.00;60892.56;4924263;28;19915;-87
2022/04/08 11:13:57;;;;;;;;;;;;;;;-145.06;0.00;60892.56;4941638;28;20002;-86
2022/04/08 11:16:37;;;;;;;;;;;;;;;-145.06;0.00;60892.56;4897145;28;19916;-86
2022/04/08 11:19:19;;;;;;;;;;;;;;;-145.06;0.00;60892.56;4919487;28;19920;-86
2022/04/08 11:21:58;;;;;;;;;;;;;;;-145.06;0.00;60892.56;4920976;28;19912;-86
2022/04/08 11:24:39;;;;;;;;;;;;;;;-145.06;0.00;60892.56;4910324;28;20358;-87
2022/04/08 11:27:17;;;;;;;;;;;;;;;-145.06;0.00;60892.56;4899270;28;19912;-87
2022/04/08 11:29:56;;;;;;;;;;;;;;;-145.06;0.00;60892.56;4916315;28;20011;-87
2022/04/08 11:32:39;;;;;;;;;;;;;;;-145.06;0.00;60892.56;4927765;28;19920;-85
2022/04/08 11:35:18;;;;;;;;;;;;;;;-145.06;0.00;60892.56;4902059;28;20542;-86
2022/04/08 11:37:57;;;;;;;;;;;;;;;-145.06;0.00;60892.56;4913860;28;20322;-86
2022/04/08 11:40:36;;;;;;;;;;;;;;;-145.06;0.00;60892.56;4897173;28;20262;-86
2022/04/08 11:43:16;;;;;;;;;;;;;;;-145.06;0.00;60892.56;4898810;28;19948;-86
2022/04/08 11:45:55;;;;;;;;;;;;;;;-145.06;0.00;60892.56;4926553;28;19920;-86
2022/04/08 11:48:37;;;;;;;;;;;;;;;-145.06;0.00;60892.56;4900759;28;19919;-86
2022/04/08 11:51:18;;;;;;;;;;;;;;;-145.06;0.00;60892.56;4927755;28;19999;-86
2022/04/08 11:54:00;;;;;;;;;;;;;;;-145.06;0.00;60892.56;4900339;28;19912;-86
2022/04/08 11:56:46;;;;;;;;;;;;;;;-145.06;0.00;60892.56;4894791;28;20394;-84
2022/04/08 11:59:26;;;;;;;;;;;;;;;-145.06;0.00;60892.56;4918004;28;19951;-84
2022/04/08 12:02:04;;;;;;;;;;;;;;;9.38;0.00;60892.56;4898745;28;19916;-84
2022/04/08 12:04:43;;;;;;;;;;;;;;;9.35;0.00;60892.56;4911353;28;19912;-84
2022/04/08 12:07:23;;;;;;;;;;;;;;;9.33;0.00;60892.56;4921785;28;20266;-85
2022/04/08 12:10:02;;;;;;;;;;;;;;;9.32;0.00;60892.56;4892861;28;19952;-85
2022/04/08 12:12:43;;;;;;;;;;;;;;;9.29;0.00;60892.56;4891305;28;19920;-85
2022/04/08 12:15:23;;;;;;;;;;;;;;;9.26;0.00;60892.56;4896806;28;19920;-85
2022/04/08 12:18:06;;;;;;;;;;;;;;;9.26;0.00;60892.56;4899796;28;19920;-83
2022/04/08 12:20:45;;;;;;;;;;;;;;;9.26;0.00;60892.56;4902660;28;19915;-85
2022/04/08 12:23:24;;;;;;;;;;;;;;;9.26;0.00;60892.56;4923847;28;19919;-85
2022/04/08 12:26:04;;;;;;;;;;;;;;;9.26;0.00;60892.56;4880455;28;20259;-85
2022/04/08 12:28:44;;;;;;;;;;;;;;;9.22;0.00;60892.56;4904946;28;19916;-85
2022/04/08 12:31:24;;;;;;;;;;;;;;;9.20;0.00;60892.56;4898127;28;19924;-86
2022/04/08 12:34:03;;;;;;;;;;;;;;;9.19;0.00;60892.56;4916655;28;20003;-84
2022/04/08 12:36:42;;;;;;;;;;;;;;;9.20;0.00;60892.56;4900598;28;19919;-85
2022/04/08 12:39:21;;;;;;;;;;;;;;;9.20;0.00;60892.56;4937594;28;20325;-85
2022/04/08 12:42:01;;;;;;;;;;;;;;;9.18;0.00;60892.56;4914330;28;20508;-85
2022/04/08 12:44:39;;;;;;;;;;;;;;;9.13;0.00;60892.56;4899495;28;19916;-86
2022/04/08 12:47:18;;;;;;;;;;;;;;;9.12;0.00;60892.56;4922208;28;19912;-87
2022/04/08 12:49:57;;;;;;;;;;;;;;;9.12;0.00;60892.56;4898887;28;20007;-86
2022/04/08 12:52:37;;;;;;;;;;;;;;;9.14;0.00;60892.56;4897180;28;19998;-87
2022/04/08 12:55:15;;;;;;;;;;;;;;;9.18;0.00;60892.56;4892425;28;20514;-87
2022/04/08 12:57:55;;;;;;;;;;;;;;;9.18;0.00;60892.56;4893931;28;19967;-85
2022/04/08 13:00:34;;;;;;;;;;;;;;;21.08;0.00;60892.56;4881734;28;19916;-88
2022/04/08 13:03:14;;;;;;;;;;;;;;;21.08;0.00;60892.56;4890358;28;19920;-88
2022/04/08 13:05:52;;;;;;;;;;;;;;;21.08;0.00;60892.56;4906324;28;19920;-87
2022/04/08 13:08:31;;;;;;;;;;;;;;;10.68;0.00;60892.56;4916311;28;19919;-88
2022/04/08 13:11:10;;;;;;;;;;;;;;;10.68;0.00;60892.56;4885003;28;19925;-87
2022/04/08 13:13:49;;;;;;;;;;;;;;;9.36;0.00;60892.56;4890712;28;19959;-88
2022/04/08 13:16:28;;;;;;;;;;;;;;;10.68;0.00;60892.56;4893339;28;19920;-87
2022/04/08 13:19:08;;;;;;;;;;;;;;;9.37;0.00;60892.56;4897306;28;19920;-88
2022/04/08 13:21:46;;;;;;;;;;;;;;;10.68;0.00;60892.56;4890623;28;19920;-88
2022/04/08 13:24:25;;;;;;;;;;;;;;;21.08;0.00;60892.56;4913578;28;19947;-88
2022/04/08 13:27:04;;;;;;;;;;;;;;;-145.06;0.00;60892.56;4889523;28;19920;-88
2022/04/08 13:29:47;;;;;;;;;;;;;;;-145.06;0.00;60892.56;4903819;28;19920;-88
2022/04/08 13:32:27;;;;;;;;;;;;;;;-145.06;0.00;60892.56;4896148;28;19920;-87
2022/04/08 13:35:07;;;;;;;;;;;;;;;-145.06;0.00;60892.56;4898907;28;19960;-89
2022/04/08 13:37:47;;;;;;;;;;;;;;;-145.06;0.00;60892.56;4902725;28;19920;-88
2022/04/08 13:40:26;;;;;;;;;;;;;;;-145.06;0.00;60892.56;4898024;28;20336;-88
2022/04/08 13:43:05;;;;;;;;;;;;;;;-145.06;0.00;60892.56;4905079;28;19924;-86
2022/04/08 13:45:44;;;;;;;;;;;;;;;-145.06;0.00;60892.56;4910163;28;19920;-89
2022/04/08 13:48:23;;;;;;;;;;;;;;;-145.06;0.00;60892.56;4901369;28;19963;-89